createdAt,value
2018-09-19T00:01:42.440Z,96161.06
2018-09-19T00:04:11.765Z,96160.72
2018-09-19T00:06:41.526Z,96159.31
2018-09-19T00:09:12.196Z,96163.36
2018-09-19T00:11:42.540Z,96159.00
2018-09-19T00:14:12.312Z,96166.23
2018-09-19T00:16:42.198Z,96159.00
2018-09-19T00:19:11.552Z,96164.68
2018-09-19T00:21:40.869Z,96166.03
2018-09-19T00:24:10.236Z,96173.60
2018-09-19T00:26:39.855Z,96173.60
2018-09-19T00:29:09.761Z,96173.08
2018-09-19T00:31:39.989Z,96171.48
2018-09-19T00:34:09.325Z,96175.50
2018-09-19T00:36:38.691Z,96178.48
2018-09-19T00:39:11.014Z,96183.35
2018-09-19T00:41:41.048Z,96183.88
2018-09-19T00:44:10.384Z,96186.83
2018-09-19T00:46:39.729Z,96188.20
2018-09-19T00:49:09.036Z,96189.55
2018-09-19T00:51:38.669Z,96187.66
2018-09-19T00:54:08.844Z,96189.55
2018-09-19T00:56:38.202Z,96186.67
2018-09-19T00:59:08.090Z,96189.09
2018-09-19T01:01:38.555Z,96192.33
2018-09-19T01:04:07.946Z,96193.18
2018-09-19T01:06:37.287Z,96192.17
2018-09-19T01:09:10.048Z,96192.66
2018-09-19T01:11:39.658Z,96190.77
2018-09-19T01:14:09.034Z,96195.98
2018-09-19T01:16:38.659Z,96197.61
2018-09-19T01:19:07.978Z,96201.11
2018-09-19T01:21:37.272Z,96201.19
2018-09-19T01:24:06.870Z,96200.91
2018-09-19T01:26:36.635Z,96196.23
2018-09-19T01:29:06.024Z,96206.22
2018-09-19T01:31:35.332Z,96205.42
2018-09-19T01:34:05.786Z,96210.03
2018-09-19T01:36:35.098Z,96207.64
2018-09-19T01:39:05.031Z,96205.49
2018-09-19T01:41:34.740Z,96210.91
2018-09-19T01:44:04.068Z,96213.64
2018-09-19T01:46:33.366Z,96217.78
2018-09-19T01:49:02.737Z,96222.38
2018-09-19T01:51:32.037Z,96223.51
2018-09-19T01:54:01.380Z,96224.05
2018-09-19T01:56:31.141Z,96225.34
2018-09-19T01:59:01.073Z,96229.91
2018-09-19T02:01:30.381Z,96230.17
2018-09-19T02:04:00.726Z,96233.58
2018-09-19T02:06:31.284Z,96235.19
2018-09-19T02:09:00.639Z,96237.64
2018-09-19T02:11:29.944Z,96239.05
2018-09-19T02:13:59.550Z,96238.02
2018-09-19T02:16:28.839Z,96239.70
2018-09-19T02:18:58.178Z,96244.55
2018-09-19T02:21:29.017Z,96248.06
2018-09-19T02:23:58.316Z,96246.43
2018-09-19T02:26:27.627Z,96249.67
2018-09-19T02:28:56.939Z,96249.70
2018-09-19T02:31:26.853Z,96245.47
2018-09-19T02:33:56.689Z,96249.27
2018-09-19T02:36:27.097Z,96249.89
2018-09-19T02:38:57.643Z,96248.33
2018-09-19T02:41:27.011Z,96250.53
2018-09-19T02:43:56.400Z,96249.69
2018-09-19T02:46:26.144Z,96251.04
2018-09-19T02:48:55.450Z,96254.02
2018-09-19T02:51:24.793Z,96246.75
2018-09-19T02:53:54.182Z,96250.52
2018-09-19T02:56:25.998Z,96251.87
2018-09-19T02:58:55.335Z,96259.20
2018-09-19T03:01:24.984Z,96249.27
2018-09-19T03:03:54.272Z,96256.81
2018-09-19T03:06:23.567Z,96256.27
2018-09-19T03:08:52.897Z,96265.73
2018-09-19T03:11:22.625Z,96264.63
2018-09-19T03:13:51.973Z,96267.03
2018-09-19T03:16:21.283Z,96265.42
2018-09-19T03:18:50.568Z,96268.41
2018-09-19T03:21:19.916Z,96272.21
2018-09-19T03:23:49.271Z,96270.87
2018-09-19T03:26:19.992Z,96269.24
2018-09-19T03:28:50.304Z,96275.44
2018-09-19T03:31:19.649Z,96274.62
2018-09-19T03:33:49.031Z,96284.59
2018-09-19T03:36:18.358Z,96293.19
2018-09-19T03:38:47.695Z,96292.94
2018-09-19T03:41:18.980Z,96293.70
2018-09-19T03:43:49.756Z,96292.40
2018-09-19T03:46:19.172Z,96288.95
2018-09-19T03:48:48.505Z,96283.92
2018-09-19T03:51:19.156Z,96282.86
2018-09-19T03:53:48.484Z,96280.16
2018-09-19T03:56:18.546Z,96285.54
2018-09-19T03:58:48.308Z,96287.69
2018-09-19T04:01:19.117Z,96287.97
2018-09-19T04:03:48.424Z,96292.81
2018-09-19T04:06:17.735Z,96289.58
2018-09-19T04:08:47.063Z,96298.71
2018-09-19T04:11:16.371Z,96305.17
2018-09-19T04:13:46.581Z,96304.37
2018-09-19T04:16:15.992Z,96302.22
2018-09-19T04:18:55.348Z,96299.52
2018-09-19T04:21:24.960Z,96294.09
2018-09-19T04:23:54.321Z,96296.28
2018-09-19T04:26:23.643Z,96294.16
2018-09-19T04:28:53.212Z,96292.81
2018-09-19T04:31:22.839Z,96296.55
2018-09-19T04:33:52.727Z,96296.50
2018-09-19T04:36:24.145Z,96296.24
2018-09-19T04:38:54.798Z,96301.14
2018-09-19T04:41:30.389Z,96305.19
2018-09-19T04:43:59.755Z,96302.22
2018-09-19T04:46:29.364Z,96307.86
2018-09-19T04:48:58.673Z,96309.69
2018-09-19T04:51:28.001Z,96309.67
2018-09-19T04:53:57.292Z,96309.09
2018-09-19T04:56:27.017Z,96313.39
2018-09-19T04:58:56.399Z,96314.20
2018-09-19T05:01:28.681Z,96319.27
2018-09-19T05:03:58.015Z,96318.70
2018-09-19T05:06:27.395Z,96318.13
2018-09-19T05:08:56.982Z,96321.89
2018-09-19T05:11:27.275Z,96322.95
2018-09-19T05:13:59.034Z,96318.91
2018-09-19T05:16:28.355Z,96324.29
2018-09-19T05:18:58.050Z,96322.33
2018-09-19T05:21:27.795Z,96329.86
2018-09-19T05:23:57.396Z,96341.38
2018-09-19T05:26:26.977Z,96340.28
2018-09-19T05:28:56.397Z,96335.11
2018-09-19T05:31:26.233Z,96338.05
2018-09-19T05:33:55.848Z,96344.34
2018-09-19T05:36:25.264Z,96347.74
2018-09-19T05:38:54.600Z,96353.86
2018-09-19T05:41:27.365Z,96357.08
2018-09-19T05:43:57.302Z,96365.12
2018-09-19T05:46:26.639Z,96371.84
2018-09-19T05:48:56.282Z,96383.57
2018-09-19T05:51:25.851Z,96392.08
2018-09-19T05:53:55.246Z,96395.71
2018-09-19T05:56:24.538Z,96393.44
2018-09-19T05:58:55.218Z,96399.36
2018-09-19T06:01:25.113Z,96402.08
2018-09-19T06:04:57.973Z,96412.33
2018-09-19T06:07:27.275Z,96416.83
2018-09-19T06:09:56.651Z,96414.34
2018-09-19T06:12:25.944Z,96411.28
2018-09-19T06:14:55.240Z,96403.65
2018-09-19T06:17:25.094Z,96409.00
2018-09-19T06:19:54.804Z,96403.31
2018-09-19T06:22:24.249Z,96411.34
2018-09-19T06:24:53.980Z,96413.67
2018-09-19T06:27:25.206Z,96409.28
2018-09-19T06:29:55.089Z,96415.95
2018-09-19T06:32:25.376Z,96412.91
2018-09-19T06:34:56.626Z,96418.52
2018-09-19T06:37:26.415Z,96437.09
2018-09-19T06:39:55.739Z,96448.52
2018-09-19T06:42:25.128Z,96480.56
2018-09-19T06:44:54.429Z,96483.72
2018-09-19T06:47:24.227Z,96494.97
2018-09-19T06:49:53.636Z,96493.23
2018-09-19T06:52:24.061Z,96494.71
2018-09-19T06:54:53.416Z,96492.09
2018-09-19T06:57:23.048Z,96491.12
2018-09-19T06:59:52.419Z,96499.25
2018-09-19T07:02:22.918Z,96493.69
2018-09-19T07:04:53.103Z,96498.84
2018-09-19T07:07:22.524Z,96510.27
2018-09-19T07:09:53.858Z,96510.05
2018-09-19T07:12:23.748Z,96508.84
2018-09-19T07:14:53.465Z,96504.52
2018-09-19T07:17:23.773Z,96507.77
2018-09-19T07:19:53.098Z,96513.92
2018-09-19T07:22:22.530Z,96510.37
2018-09-19T07:24:53.414Z,96514.69
2018-09-19T07:27:23.390Z,96519.04
2018-09-19T07:29:53.061Z,96515.87
2018-09-19T07:32:23.914Z,96518.28
2018-09-19T07:34:54.214Z,96518.56
2018-09-19T07:37:23.565Z,96518.02
2018-09-19T07:39:54.591Z,96520.73
2018-09-19T07:42:24.499Z,96517.97
2018-09-19T07:44:54.366Z,96511.48
2018-09-19T07:47:26.419Z,96520.09
2018-09-19T07:49:55.834Z,96520.27
2018-09-19T07:52:25.155Z,96518.03
2018-09-19T07:54:56.180Z,96515.05
2018-09-19T07:57:26.215Z,96515.81
2018-09-19T07:59:59.583Z,96508.47
2018-09-19T08:02:32.815Z,96508.42
2018-09-19T08:05:02.124Z,96511.31
2018-09-19T08:07:33.283Z,96502.89
2018-09-19T08:10:02.597Z,96505.58
2018-09-19T08:12:32.247Z,96502.87
2018-09-19T08:15:02.338Z,96506.04
2018-09-19T08:17:32.204Z,96506.77
2018-09-19T08:20:01.496Z,96504.58
2018-09-19T08:22:31.192Z,96508.64
2018-09-19T08:25:00.608Z,96498.34
2018-09-19T08:27:29.935Z,96507.78
2018-09-19T08:29:59.633Z,96503.94
2018-09-19T08:32:29.249Z,96501.44
2018-09-19T08:34:58.770Z,96499.20
2018-09-19T08:37:29.381Z,96507.73
2018-09-19T08:40:02.783Z,96509.78
2018-09-19T08:42:35.904Z,96506.44
2018-09-19T08:45:05.879Z,96513.09
2018-09-19T08:47:36.707Z,96497.02
2018-09-19T08:50:06.496Z,96493.45
2018-09-19T08:52:36.223Z,96491.80
2018-09-19T08:55:05.647Z,96489.30
2018-09-19T08:57:35.169Z,96487.01
2018-09-19T09:00:05.375Z,96494.22
2018-09-19T09:02:35.233Z,96499.28
2018-09-19T09:05:05.023Z,96511.35
2018-09-19T09:07:34.311Z,96494.72
2018-09-19T09:10:04.272Z,96488.39
2018-09-19T09:12:45.070Z,96485.28
2018-09-19T09:15:20.111Z,96486.02
2018-09-19T09:17:53.312Z,96484.27
2018-09-19T09:20:23.312Z,96487.37
2018-09-19T09:22:55.359Z,96477.22
2018-09-19T09:25:25.279Z,96480.59
2018-09-19T09:27:55.440Z,96483.44
2018-09-19T09:30:26.433Z,96475.02
2018-09-19T09:32:56.971Z,96481.48
2018-09-19T09:35:28.583Z,96478.73
2018-09-19T09:37:57.903Z,96487.09
2018-09-19T09:40:28.852Z,96482.47
2018-09-19T09:42:59.876Z,96481.33
2018-09-19T09:45:31.252Z,96477.81
2018-09-19T09:48:01.114Z,96477.77
2018-09-19T09:50:31.735Z,96482.02
2018-09-19T09:53:01.862Z,96476.81
2018-09-19T09:55:31.270Z,96476.77
2018-09-19T09:58:00.581Z,96465.55
2018-09-19T10:00:38.207Z,96461.52
2018-09-19T10:03:09.045Z,96452.73
2018-09-19T10:05:39.305Z,96454.88
2018-09-19T10:08:12.508Z,96447.98
2018-09-19T10:10:42.483Z,96448.41
2018-09-19T10:13:12.784Z,96445.06
2018-09-19T10:15:44.603Z,96444.27
2018-09-19T10:18:14.054Z,96441.38
2018-09-19T10:20:43.643Z,96441.80
2018-09-19T10:23:14.146Z,96441.53
2018-09-19T10:25:44.994Z,96446.67
2018-09-19T10:28:14.887Z,96452.55
2018-09-19T10:30:46.200Z,96456.08
2018-09-19T10:33:15.583Z,96457.63
2018-09-19T10:35:46.013Z,96454.23
2018-09-19T10:38:15.930Z,96459.22
2018-09-19T10:40:45.290Z,96458.92
2018-09-19T10:43:15.288Z,96449.30
2018-09-19T10:45:45.577Z,96453.05
2018-09-19T10:48:21.431Z,96455.58
2018-09-19T10:53:47.419Z,96451.67
2018-09-19T10:56:20.119Z,96444.43
2018-09-19T10:58:49.463Z,96440.30
2018-09-19T11:01:19.614Z,96439.84
2018-09-19T11:03:49.397Z,96444.61
2018-09-19T11:06:19.412Z,96456.58
2018-09-19T11:08:50.125Z,96450.97
2018-09-19T11:11:21.201Z,96450.65
2018-09-19T11:13:51.648Z,96453.08
2018-09-19T11:16:23.967Z,96460.94
2018-09-19T11:18:54.316Z,96458.03
2018-09-19T11:21:28.869Z,96451.05
2018-09-19T11:23:58.144Z,96445.90
2018-09-19T11:26:27.489Z,96443.91
2018-09-19T11:31:45.715Z,96437.05
2018-09-19T11:34:15.433Z,96434.00
2018-09-19T11:36:45.194Z,96436.38
2018-09-19T11:39:17.622Z,96435.34
2018-09-19T11:41:49.562Z,96430.11
2018-09-19T11:44:18.840Z,96432.08
2018-09-19T11:46:48.524Z,96422.61
2018-09-19T11:49:18.275Z,96427.63
2018-09-19T11:51:48.383Z,96428.45
2018-09-19T11:54:51.588Z,96433.92
2018-09-19T11:57:21.993Z,96429.95
2018-09-19T11:59:52.532Z,96429.84
2018-09-19T12:02:24.030Z,96432.44
2018-09-19T12:04:53.368Z,96434.27
2018-09-19T12:07:26.116Z,96427.81
2018-09-19T12:09:55.398Z,96428.84
2018-09-19T12:12:26.407Z,96432.34
2018-09-19T12:14:56.586Z,96428.91
2018-09-19T12:17:25.900Z,96437.16
2018-09-19T12:19:55.175Z,96437.62
2018-09-19T12:22:24.814Z,96431.79
2018-09-19T12:24:57.846Z,96426.32
2018-09-19T12:27:27.144Z,96423.80
2018-09-19T12:29:56.931Z,96424.84
2018-09-19T12:35:14.463Z,96419.45
2018-09-19T12:37:47.299Z,96415.02
2018-09-19T12:40:16.694Z,96419.47
2018-09-19T12:42:46.320Z,96417.87
2018-09-19T12:45:16.163Z,96412.14
2018-09-19T12:47:47.059Z,96407.58
2018-09-19T12:50:19.072Z,96415.97
2018-09-19T12:52:49.228Z,96413.01
2018-09-19T12:55:18.515Z,96409.13
2018-09-19T12:57:49.243Z,96407.76
2018-09-19T13:00:18.578Z,96408.45
2018-09-19T13:02:54.424Z,96406.93
2018-09-19T13:05:23.714Z,96406.36
2018-09-19T13:07:53.060Z,96405.67
2018-09-19T13:10:22.389Z,96407.27
2018-09-19T13:12:51.820Z,96420.86
2018-09-19T13:15:21.946Z,96414.92
2018-09-19T13:17:52.468Z,96412.21
2018-09-19T13:20:24.364Z,96416.86
2018-09-19T13:22:53.717Z,96412.64
2018-09-19T13:25:22.976Z,96414.46
2018-09-19T13:27:52.303Z,96408.45
2018-09-19T13:30:23.260Z,96403.09
2018-09-19T13:32:54.264Z,96404.75
2018-09-19T13:35:27.691Z,96400.36
2018-09-19T13:37:58.014Z,96397.27
2018-09-19T13:40:27.417Z,96390.84
2018-09-19T13:42:56.829Z,96386.78
2018-09-19T13:45:26.138Z,96389.41
2018-09-19T13:47:56.919Z,96383.34
2018-09-19T13:50:41.647Z,96384.44
2018-09-19T13:53:10.996Z,96387.17
2018-09-19T13:55:44.774Z,96385.33
2018-09-19T13:58:14.224Z,96382.56
2018-09-19T14:00:46.401Z,96378.58
2018-09-19T14:03:16.168Z,96382.29
2018-09-19T14:05:46.231Z,96373.04
2018-09-19T14:08:17.073Z,96378.52
2018-09-19T14:10:50.149Z,96382.81
2018-09-19T14:13:21.227Z,96383.05
2018-09-19T14:15:50.524Z,96383.18
2018-09-19T14:18:19.923Z,96381.69
2018-09-19T14:20:49.773Z,96374.55
2018-09-19T14:23:21.441Z,96377.83
2018-09-19T14:25:50.900Z,96380.30
2018-09-19T14:28:22.364Z,96377.10
2018-09-19T14:30:51.773Z,96368.07
2018-09-19T14:33:22.574Z,96367.95
2018-09-19T14:35:56.015Z,96362.33
2018-09-19T14:38:32.112Z,96364.44
2018-09-19T14:41:03.092Z,96364.30
2018-09-19T14:43:32.410Z,96357.44
2018-09-19T14:46:02.283Z,96352.75
2018-09-19T14:48:32.086Z,96353.20
2018-09-19T14:51:02.019Z,96353.77
2018-09-19T14:53:35.972Z,96352.17
2018-09-19T14:56:06.144Z,96351.83
2018-09-19T14:58:35.968Z,96348.92
2018-09-19T15:01:05.447Z,96355.45
2018-09-19T15:03:34.873Z,96353.39
2018-09-19T15:06:04.987Z,96353.17
2018-09-19T15:08:36.672Z,96348.86
2018-09-19T15:11:06.501Z,96347.23
2018-09-19T15:13:35.811Z,96352.72
2018-09-19T15:16:05.191Z,96351.76
2018-09-19T15:18:34.944Z,96343.46
2018-09-19T15:21:04.595Z,96350.70
2018-09-19T15:23:33.896Z,96346.34
2018-09-19T15:26:04.058Z,96345.66
2018-09-19T15:28:33.452Z,96349.87
2018-09-19T15:31:03.813Z,96345.13
2018-09-19T15:33:34.252Z,96358.51
2018-09-19T15:36:03.600Z,96349.30
2018-09-19T15:38:35.778Z,96353.13
2018-09-19T15:41:06.965Z,96356.55
2018-09-19T15:43:38.515Z,96354.46
2018-09-19T15:46:07.814Z,96356.75
2018-09-19T15:48:37.761Z,96353.55
2018-09-19T15:51:07.703Z,96356.87
2018-09-19T15:53:41.971Z,96353.93
2018-09-19T15:56:12.461Z,96356.50
2018-09-19T15:58:42.569Z,96361.63
2018-09-19T16:01:14.382Z,96363.11
2018-09-19T16:03:44.587Z,96358.66
2018-09-19T16:06:13.910Z,96358.57
2018-09-19T16:08:44.234Z,96356.77
2018-09-19T16:11:14.336Z,96359.63
2018-09-19T16:13:43.661Z,96357.69
2018-09-19T16:16:14.284Z,96365.31
2018-09-19T16:18:45.259Z,96354.81
2018-09-19T16:21:14.578Z,96363.84
2018-09-19T16:23:44.950Z,96366.00
2018-09-19T16:26:17.352Z,96369.98
2018-09-19T16:28:50.187Z,96372.70
2018-09-19T16:31:19.801Z,96371.44
2018-09-19T16:33:49.110Z,96368.23
2018-09-19T16:36:18.443Z,96369.51
2018-09-19T16:38:47.711Z,96371.14
2018-09-19T16:41:17.344Z,96372.27
2018-09-19T16:43:47.259Z,96368.04
2018-09-19T16:46:22.148Z,96377.27
2018-09-19T16:48:51.411Z,96372.45
2018-09-19T16:51:21.387Z,96373.20
2018-09-19T16:53:50.728Z,96377.41
2018-09-19T16:56:21.000Z,96374.02
2018-09-19T16:58:50.927Z,96377.50
2018-09-19T17:01:22.106Z,96379.35
2018-09-19T17:03:52.847Z,96380.33
2018-09-19T17:06:23.667Z,96382.20
2018-09-19T17:08:55.227Z,96381.27
2018-09-19T17:11:27.896Z,96382.89
2018-09-19T17:13:58.322Z,96382.86
2018-09-19T17:16:46.082Z,96388.07
2018-09-19T17:19:15.523Z,96390.83
2018-09-19T17:21:48.423Z,96386.59
2018-09-19T17:24:18.047Z,96386.59
2018-09-19T17:26:47.354Z,96396.48
2018-09-19T17:29:17.950Z,96395.00
2018-09-19T17:31:47.625Z,96403.02
2018-09-19T17:34:17.381Z,96397.54
2018-09-19T17:36:55.400Z,96398.25
2018-09-19T17:39:32.029Z,96394.84
2018-09-19T17:42:01.388Z,96396.99
2018-09-19T17:44:32.273Z,96399.81
2018-09-19T17:47:02.455Z,96398.52
2018-09-19T17:49:32.068Z,96401.58
2018-09-19T17:52:03.660Z,96405.03
2018-09-19T17:54:35.783Z,96407.31
2018-09-19T17:57:05.105Z,96405.89
2018-09-19T17:59:34.469Z,96406.27
2018-09-19T18:02:03.770Z,96403.09
2018-09-19T18:04:34.546Z,96407.51
2018-09-19T18:07:03.912Z,96407.89
2018-09-19T18:09:42.214Z,96404.45
2018-09-19T18:12:12.244Z,96409.63
2018-09-19T18:14:43.020Z,96406.59
2018-09-19T18:17:14.222Z,96405.71
2018-09-19T18:19:43.503Z,96410.67
2018-09-19T18:22:12.882Z,96413.64
2018-09-19T18:24:45.988Z,96406.67
2018-09-19T18:27:15.951Z,96416.39
2018-09-19T18:29:45.527Z,96408.91
2018-09-19T18:32:15.865Z,96411.07
2018-09-19T18:34:45.759Z,96412.41
2018-09-19T18:37:21.113Z,96416.61
2018-09-19T18:39:52.689Z,96423.86
2018-09-19T18:42:23.371Z,96421.49
2018-09-19T18:44:53.979Z,96414.52
2018-09-19T18:47:23.585Z,96419.65
2018-09-19T18:52:40.090Z,96417.80
2018-09-19T18:55:11.643Z,96416.06
2018-09-19T18:57:41.032Z,96414.78
2018-09-19T19:00:12.258Z,96417.83
2018-09-19T19:02:42.625Z,96419.02
2018-09-19T19:05:14.044Z,96421.20
2018-09-19T19:07:44.866Z,96424.31
2018-09-19T19:10:18.412Z,96419.02
2018-09-19T19:12:48.578Z,96422.61
2018-09-19T19:15:19.969Z,96423.03
2018-09-19T19:17:50.793Z,96426.78
2018-09-19T19:20:21.855Z,96429.50
2018-09-19T19:22:53.647Z,96426.78
2018-09-19T19:25:23.723Z,96420.14
2018-09-19T19:27:53.616Z,96425.03
2018-09-19T19:30:24.496Z,96429.43
2018-09-19T19:32:56.123Z,96429.05
2018-09-19T19:35:25.624Z,96434.87
2018-09-19T19:37:55.139Z,96432.40
2018-09-19T19:40:25.370Z,96431.98
2018-09-19T19:42:55.417Z,96434.70
2018-09-19T19:45:25.555Z,96438.16
2018-09-19T19:47:55.400Z,96433.59
2018-09-19T19:50:25.406Z,96436.06
2018-09-19T19:52:56.586Z,96431.52
2018-09-19T19:55:32.187Z,96438.16
2018-09-19T19:58:05.310Z,96428.39
2018-09-19T20:00:36.959Z,96433.09
2018-09-19T20:03:10.481Z,96442.30
2018-09-19T20:05:44.460Z,96435.11
2018-09-19T20:08:14.500Z,96429.42
2018-09-19T20:10:44.106Z,96427.64
2018-09-19T20:13:13.652Z,96434.75
2018-09-19T20:15:47.460Z,96434.44
2018-09-19T20:18:19.388Z,96433.89
2018-09-19T20:20:50.235Z,96437.52
2018-09-19T20:23:21.286Z,96434.37
2018-09-19T20:25:50.515Z,96433.25
2018-09-19T20:28:19.775Z,96441.41
2018-09-19T20:30:51.066Z,96433.88
2018-09-19T20:33:22.408Z,96437.16
2018-09-19T20:35:54.506Z,96433.95
2018-09-19T20:38:24.776Z,96435.48
2018-09-19T20:40:55.078Z,96447.34
2018-09-19T20:43:24.361Z,96446.61
2018-09-19T20:45:53.878Z,96448.20
2018-09-19T20:48:24.126Z,96448.69
2018-09-19T20:50:55.328Z,96444.19
2018-09-19T20:53:25.361Z,96442.45
2018-09-19T20:55:58.558Z,96445.80
2018-09-19T20:58:28.811Z,96442.84
2018-09-19T21:01:01.028Z,96442.84
2018-09-19T21:03:31.243Z,96438.52
2018-09-19T21:06:02.018Z,96446.44
2018-09-19T21:08:34.882Z,96446.59
2018-09-19T21:11:06.438Z,96443.63
2018-09-19T21:13:35.766Z,96449.07
2018-09-19T21:16:05.414Z,96444.26
2018-09-19T21:18:34.974Z,96451.30
2018-09-19T21:21:05.285Z,96446.97
2018-09-19T21:23:35.188Z,96454.09
2018-09-19T21:26:07.534Z,96451.25
2018-09-19T21:28:37.860Z,96453.97
2018-09-19T21:31:08.079Z,96448.19
2018-09-19T21:33:37.691Z,96450.94
2018-09-19T21:36:07.223Z,96451.72
2018-09-19T21:38:37.986Z,96455.14
2018-09-19T21:41:08.296Z,96455.33
2018-09-19T21:43:43.505Z,96456.66
2018-09-19T21:46:14.409Z,96457.87
2018-09-19T21:48:44.041Z,96454.17
2018-09-19T21:51:15.142Z,96457.75
2018-09-19T21:53:44.443Z,96462.81
2018-09-19T21:56:13.808Z,96460.97
2018-09-19T21:58:43.112Z,96466.99
2018-09-19T22:01:13.149Z,96463.19
2018-09-19T22:03:43.162Z,96463.13
2018-09-19T22:06:13.453Z,96466.92
2018-09-19T22:08:44.947Z,96465.37
2018-09-19T22:11:17.304Z,96460.41
2018-09-19T22:13:49.233Z,96460.41
2018-09-19T22:16:19.170Z,96458.86
2018-09-19T22:18:48.997Z,96459.62
2018-09-19T22:21:21.918Z,96452.48
2018-09-19T22:23:54.113Z,96453.89
2018-09-19T22:26:25.472Z,96454.73
2018-09-19T22:28:54.791Z,96455.83
2018-09-19T22:31:25.311Z,96457.63
2018-09-19T22:33:55.962Z,96460.34
2018-09-19T22:36:25.236Z,96457.44
2018-09-19T22:38:54.619Z,96462.06
2018-09-19T22:41:23.970Z,96457.25
2018-09-19T22:43:53.247Z,96463.12
2018-09-19T22:46:22.693Z,96453.11
2018-09-19T22:48:52.302Z,96451.81
2018-09-19T22:51:21.566Z,96454.23
2018-09-19T22:53:51.949Z,96451.61
2018-09-19T22:56:22.293Z,96446.77
2018-09-19T22:58:51.810Z,96446.33
2018-09-19T23:01:21.843Z,96444.97
2018-09-19T23:03:53.231Z,96444.47
2018-09-19T23:06:22.979Z,96450.77
2018-09-19T23:08:52.286Z,96446.28
2018-09-19T23:11:21.618Z,96439.61
2018-09-19T23:13:50.950Z,96442.58
2018-09-19T23:16:20.575Z,96443.03
2018-09-19T23:18:49.974Z,96446.73
2018-09-19T23:21:19.272Z,96443.53
2018-09-19T23:23:48.558Z,96444.63
2018-09-19T23:26:18.211Z,96443.52
2018-09-19T23:28:49.455Z,96447.70
2018-09-19T23:31:19.567Z,96444.19
2018-09-19T23:33:49.138Z,96436.49
2018-09-19T23:36:18.431Z,96433.98
2018-09-19T23:38:48.959Z,96436.55
2018-09-19T23:41:18.353Z,96436.24
2018-09-19T23:43:49.391Z,96434.78
2018-09-19T23:46:19.318Z,96429.66
2018-09-19T23:48:48.873Z,96431.04
2018-09-19T23:51:18.197Z,96432.20
2018-09-19T23:53:47.879Z,96431.55
2018-09-19T23:56:19.370Z,96428.22
2018-09-19T23:58:48.872Z,96432.05
